createdAt,value
2018-09-17T00:02:06.896Z,101346.66
2018-09-17T00:04:36.664Z,101343.17
2018-09-17T00:07:06.424Z,101339.22
2018-09-17T00:09:36.177Z,101344.98
2018-09-17T00:12:05.990Z,101341.42
2018-09-17T00:14:35.796Z,101337.86
2018-09-17T00:17:05.620Z,101344.10
2018-09-17T00:19:35.440Z,101339.64
2018-09-17T00:22:05.264Z,101342.73
2018-09-17T00:24:34.704Z,101337.33
2018-09-17T00:27:04.464Z,101331.67
2018-09-17T00:29:33.864Z,101334.30
2018-09-17T00:32:03.664Z,101331.67
2018-09-17T00:34:33.414Z,101334.40
2018-09-17T00:37:03.132Z,101334.03
2018-09-17T00:39:32.896Z,101330.97
2018-09-17T00:42:03.176Z,101336.69
2018-09-17T00:44:32.967Z,101334.42
2018-09-17T00:47:02.653Z,101333.60
2018-09-17T00:49:32.401Z,101341.15
2018-09-17T00:52:02.163Z,101326.66
2018-09-17T00:54:31.698Z,101331.89
2018-09-17T00:57:01.485Z,101333.80
2018-09-17T00:59:31.232Z,101332.09
2018-09-17T01:02:01.119Z,101337.91
2018-09-17T01:04:30.857Z,101332.63
2018-09-17T01:07:00.595Z,101333.19
2018-09-17T01:09:35.623Z,101331.94
2018-09-17T01:12:05.511Z,101338.27
2018-09-17T01:14:35.302Z,101329.52
2018-09-17T01:17:05.263Z,101337.17
2018-09-17T01:19:35.037Z,101328.94
2018-09-17T01:22:04.795Z,101338.34
2018-09-17T01:24:34.271Z,101338.34
2018-09-17T01:27:03.999Z,101330.77
2018-09-17T01:29:33.791Z,101332.98
2018-09-17T01:32:03.465Z,101324.28
2018-09-17T01:34:33.192Z,101331.41
2018-09-17T01:37:02.946Z,101331.80
2018-09-17T01:39:32.684Z,101332.36
2018-09-17T01:42:02.392Z,101337.69
2018-09-17T01:44:32.094Z,101333.27
2018-09-17T01:47:01.438Z,101332.32
2018-09-17T01:49:31.052Z,101332.75
2018-09-17T01:52:00.748Z,101331.44
2018-09-17T01:54:30.458Z,101327.91
2018-09-17T01:57:00.191Z,101333.33
2018-09-17T01:59:29.902Z,101332.48
2018-09-17T02:01:59.309Z,101328.98
2018-09-17T02:04:28.786Z,101331.31
2018-09-17T02:06:59.107Z,101330.11
2018-09-17T02:09:29.791Z,101331.98
2018-09-17T02:11:59.113Z,101332.08
2018-09-17T02:14:28.461Z,101333.84
2018-09-17T02:16:57.832Z,101334.34
2018-09-17T02:19:27.227Z,101337.44
2018-09-17T02:21:56.900Z,101336.13
2018-09-17T02:24:26.757Z,101333.02
2018-09-17T02:26:56.693Z,101336.98
2018-09-17T02:29:26.530Z,101339.16
2018-09-17T02:31:56.009Z,101337.44
2018-09-17T02:34:26.366Z,101339.67
2018-09-17T02:36:55.823Z,101334.35
2018-09-17T02:39:25.706Z,101337.88
2018-09-17T02:41:56.578Z,101331.22
2018-09-17T02:44:26.487Z,101325.45
2018-09-17T02:46:56.387Z,101321.41
2018-09-17T02:49:26.244Z,101322.68
2018-09-17T02:51:56.661Z,101320.46
2018-09-17T02:54:26.454Z,101318.64
2018-09-17T02:56:55.880Z,101317.70
2018-09-17T02:59:25.459Z,101314.57
2018-09-17T03:01:55.370Z,101317.62
2018-09-17T03:04:24.829Z,101318.06
2018-09-17T03:06:54.624Z,101318.56
2018-09-17T03:09:24.562Z,101319.92
2018-09-17T03:11:55.104Z,101328.42
2018-09-17T03:14:31.144Z,101327.61
2018-09-17T03:17:14.365Z,101324.63
2018-09-17T03:19:45.634Z,101326.48
2018-09-17T03:22:16.116Z,101326.52
2018-09-17T03:24:45.516Z,101333.23
2018-09-17T03:27:16.141Z,101338.20
2018-09-17T03:29:46.058Z,101330.34
2018-09-17T03:32:15.998Z,101338.28
2018-09-17T03:34:45.808Z,101333.42
2018-09-17T03:37:15.588Z,101339.19
2018-09-17T03:39:45.311Z,101339.30
2018-09-17T03:42:15.177Z,101341.62
2018-09-17T03:44:45.023Z,101343.12
2018-09-17T03:47:14.401Z,101344.93
2018-09-17T03:49:43.917Z,101346.76
2018-09-17T03:52:13.413Z,101346.35
2018-09-17T03:54:43.266Z,101358.36
2018-09-17T03:57:13.163Z,101354.02
2018-09-17T03:59:42.924Z,101351.89
2018-09-17T04:02:13.498Z,101350.22
2018-09-17T04:04:43.709Z,101352.06
2018-09-17T04:07:13.983Z,101353.91
2018-09-17T04:09:45.361Z,101364.09
2018-09-17T04:12:16.233Z,101359.72
2018-09-17T04:14:46.062Z,101358.90
2018-09-17T04:17:16.537Z,101364.25
2018-09-17T04:19:46.347Z,101364.75
2018-09-17T04:22:16.541Z,101364.31
2018-09-17T04:24:46.324Z,101354.12
2018-09-17T04:27:16.207Z,101347.95
2018-09-17T04:29:45.702Z,101346.69
2018-09-17T04:32:16.481Z,101351.16
2018-09-17T04:34:49.901Z,101350.77
2018-09-17T04:37:19.849Z,101345.91
2018-09-17T04:39:49.761Z,101343.70
2018-09-17T04:42:19.636Z,101353.84
2018-09-17T04:44:49.389Z,101347.23
2018-09-17T04:47:19.185Z,101351.20
2018-09-17T04:49:48.915Z,101351.16
2018-09-17T04:52:18.705Z,101350.71
2018-09-17T04:54:48.425Z,101353.78
2018-09-17T04:57:18.381Z,101349.81
2018-09-17T04:59:48.181Z,101355.06
2018-09-17T05:02:17.637Z,101350.21
2018-09-17T05:04:47.371Z,101357.70
2018-09-17T05:07:17.319Z,101357.69
2018-09-17T05:09:47.011Z,101361.59
2018-09-17T05:12:16.833Z,101361.55
2018-09-17T05:14:47.035Z,101361.97
2018-09-17T05:17:16.765Z,101369.86
2018-09-17T05:19:46.508Z,101374.69
2018-09-17T05:22:16.229Z,101371.97
2018-09-17T05:24:45.954Z,101373.22
2018-09-17T05:27:15.355Z,101374.49
2018-09-17T05:29:45.427Z,101376.23
2018-09-17T05:32:15.138Z,101367.76
2018-09-17T05:34:44.851Z,101365.47
2018-09-17T05:37:14.525Z,101365.41
2018-09-17T05:39:43.873Z,101366.70
2018-09-17T05:42:13.220Z,101362.20
2018-09-17T05:44:43.019Z,101360.77
2018-09-17T05:47:12.707Z,101367.23
2018-09-17T05:49:42.465Z,101364.84
2018-09-17T05:52:12.133Z,101367.02
2018-09-17T05:54:41.911Z,101359.34
2018-09-17T05:57:11.645Z,101363.97
2018-09-17T05:59:41.533Z,101364.27
2018-09-17T06:02:11.167Z,101363.27
2018-09-17T06:04:40.937Z,101362.64
2018-09-17T06:07:10.713Z,101364.23
2018-09-17T06:09:40.428Z,101369.34
2018-09-17T06:12:10.149Z,101365.14
2018-09-17T06:14:39.988Z,101370.69
2018-09-17T06:17:09.741Z,101365.20
2018-09-17T06:19:39.529Z,101364.96
2018-09-17T06:22:09.300Z,101353.73
2018-09-17T06:24:39.072Z,101359.20
2018-09-17T06:27:08.929Z,101359.45
2018-09-17T06:29:38.651Z,101354.33
2018-09-17T06:32:08.088Z,101352.30
2018-09-17T06:34:37.508Z,101351.97
2018-09-17T06:37:07.366Z,101339.66
2018-09-17T06:39:37.092Z,101340.40
2018-09-17T06:42:06.833Z,101342.77
2018-09-17T06:44:36.609Z,101347.78
2018-09-17T06:47:06.350Z,101347.96
2018-09-17T06:49:36.184Z,101343.07
2018-09-17T06:52:05.926Z,101341.28
2018-09-17T06:54:35.675Z,101336.11
2018-09-17T06:57:05.525Z,101338.81
2018-09-17T06:59:35.355Z,101337.16
2018-09-17T07:02:05.227Z,101344.91
2018-09-17T07:04:35.015Z,101351.14
2018-09-17T07:07:05.248Z,101357.98
2018-09-17T07:09:35.034Z,101351.58
2018-09-17T07:12:04.795Z,101345.48
2018-09-17T07:14:34.586Z,101341.20
2018-09-17T07:17:04.349Z,101339.27
2018-09-17T07:19:34.169Z,101340.16
2018-09-17T07:22:03.950Z,101338.56
2018-09-17T07:24:33.758Z,101345.37
2018-09-17T07:27:03.504Z,101333.26
2018-09-17T07:29:33.245Z,101329.92
2018-09-17T07:32:03.825Z,101331.73
2018-09-17T07:34:33.532Z,101337.14
2018-09-17T07:37:04.809Z,101334.52
2018-09-17T07:39:34.612Z,101342.64
2018-09-17T07:42:04.604Z,101344.97
2018-09-17T07:44:34.330Z,101335.96
2018-09-17T07:47:04.116Z,101337.53
2018-09-17T07:49:33.886Z,101339.47
2018-09-17T07:52:04.796Z,101335.98
2018-09-17T07:54:36.476Z,101337.25
2018-09-17T07:57:06.291Z,101341.45
2018-09-17T07:59:36.041Z,101339.52
2018-09-17T08:02:05.783Z,101341.56
2018-09-17T08:04:35.270Z,101340.44
2018-09-17T08:07:06.662Z,101342.60
2018-09-17T08:09:37.242Z,101341.92
2018-09-17T08:12:07.121Z,101339.34
2018-09-17T08:14:37.726Z,101350.27
2018-09-17T08:17:07.682Z,101344.13
2018-09-17T08:19:37.652Z,101346.50
2018-09-17T08:22:07.410Z,101347.34
2018-09-17T08:24:37.207Z,101348.61
2018-09-17T08:27:07.327Z,101356.01
2018-09-17T08:29:37.080Z,101350.02
2018-09-17T08:32:06.940Z,101350.56
2018-09-17T08:34:36.707Z,101357.41
2018-09-17T08:37:06.682Z,101351.38
2018-09-17T08:39:36.472Z,101343.89
2018-09-17T08:42:06.385Z,101334.41
2018-09-17T08:44:36.283Z,101335.91
2018-09-17T08:47:06.235Z,101336.72
2018-09-17T08:49:36.007Z,101340.21
2018-09-17T08:52:05.859Z,101338.53
2018-09-17T08:54:39.640Z,101347.77
2018-09-17T08:57:14.413Z,101349.05
2018-09-17T08:59:51.064Z,101349.28
2018-09-17T09:02:26.387Z,101352.94
2018-09-17T09:04:56.445Z,101346.61
2018-09-17T09:07:36.286Z,101343.53
2018-09-17T09:10:12.603Z,101349.25
2018-09-17T09:12:47.230Z,101354.31
2018-09-17T09:15:19.035Z,101346.24
2018-09-17T09:17:48.855Z,101354.41
2018-09-17T09:20:18.619Z,101343.79
2018-09-17T09:22:48.421Z,101332.64
2018-09-17T09:25:18.243Z,101326.50
2018-09-17T09:27:48.071Z,101323.05
2018-09-17T09:30:17.895Z,101317.78
2018-09-17T09:32:47.660Z,101323.62
2018-09-17T09:35:18.099Z,101318.78
2018-09-17T09:37:48.802Z,101318.10
2018-09-17T09:40:19.398Z,101309.43
2018-09-17T09:42:49.174Z,101297.91
2018-09-17T09:45:20.275Z,101296.80
2018-09-17T09:47:50.163Z,101296.31
2018-09-17T09:50:19.939Z,101303.78
2018-09-17T09:52:49.960Z,101303.91
2018-09-17T09:55:19.874Z,101301.92
2018-09-17T09:57:50.652Z,101302.42
2018-09-17T10:00:25.641Z,101303.22
2018-09-17T10:03:00.519Z,101305.09
2018-09-17T10:05:30.716Z,101304.41
2018-09-17T10:08:00.707Z,101303.74
2018-09-17T10:10:35.671Z,101308.84
2018-09-17T10:13:11.119Z,101302.70
2018-09-17T10:15:46.677Z,101304.86
2018-09-17T10:18:21.631Z,101291.58
2018-09-17T10:20:52.439Z,101292.41
2018-09-17T10:23:23.538Z,101290.28
2018-09-17T10:25:53.317Z,101288.67
2018-09-17T10:28:25.506Z,101292.89
2018-09-17T10:30:55.253Z,101294.14
2018-09-17T10:33:25.178Z,101290.31
2018-09-17T10:35:54.934Z,101293.89
2018-09-17T10:38:24.626Z,101294.63
2018-09-17T10:40:54.331Z,101299.45
2018-09-17T10:43:24.350Z,101303.48
2018-09-17T10:45:54.172Z,101301.24
2018-09-17T10:48:24.654Z,101296.12
2018-09-17T10:50:54.499Z,101298.08
2018-09-17T10:53:24.352Z,101297.48
2018-09-17T10:55:54.243Z,101294.78
2018-09-17T10:58:24.541Z,101290.04
2018-09-17T11:00:54.434Z,101293.42
2018-09-17T11:03:25.242Z,101280.55
2018-09-17T11:05:55.629Z,101281.05
2018-09-17T11:08:25.483Z,101281.29
2018-09-17T11:10:55.372Z,101278.57
2018-09-17T11:13:25.232Z,101279.09
2018-09-17T11:15:55.146Z,101273.75
2018-09-17T11:18:24.966Z,101271.08
2018-09-17T11:20:54.818Z,101272.50
2018-09-17T11:23:24.695Z,101270.23
2018-09-17T11:25:54.438Z,101268.70
2018-09-17T11:28:24.276Z,101263.38
2018-09-17T11:30:54.222Z,101257.68
2018-09-17T11:33:24.084Z,101259.73
2018-09-17T11:35:53.888Z,101250.25
2018-09-17T11:38:24.674Z,101250.30
2018-09-17T11:40:54.458Z,101248.66
2018-09-17T11:43:24.329Z,101244.36
2018-09-17T11:45:54.076Z,101243.14
2018-09-17T11:48:23.992Z,101234.82
2018-09-17T11:50:53.795Z,101228.73
2018-09-17T11:53:23.670Z,101230.14
2018-09-17T11:55:53.705Z,101232.33
2018-09-17T11:58:24.099Z,101229.47
2018-09-17T12:00:59.034Z,101223.43
2018-09-17T12:03:34.066Z,101216.52
2018-09-17T12:06:05.298Z,101221.97
2018-09-17T12:08:35.706Z,101223.00
2018-09-17T12:11:05.738Z,101224.21
2018-09-17T12:13:35.434Z,101214.97
2018-09-17T12:16:05.450Z,101215.61
2018-09-17T12:18:35.319Z,101209.08
2018-09-17T12:21:05.217Z,101211.82
2018-09-17T12:23:34.987Z,101207.34
2018-09-17T12:26:04.773Z,101208.59
2018-09-17T12:28:34.586Z,101205.75
2018-09-17T12:31:04.474Z,101205.08
2018-09-17T12:33:36.110Z,101199.84
2018-09-17T12:36:05.894Z,101196.03
2018-09-17T12:38:35.738Z,101195.17
2018-09-17T12:41:06.842Z,101192.13
2018-09-17T12:43:36.789Z,101192.27
2018-09-17T12:46:06.707Z,101192.27
2018-09-17T12:48:36.529Z,101184.34
2018-09-17T12:51:06.324Z,101183.03
2018-09-17T12:53:36.166Z,101175.23
2018-09-17T12:56:06.040Z,101175.48
2018-09-17T12:58:35.806Z,101174.74
2018-09-17T13:01:05.613Z,101174.34
2018-09-17T13:03:35.367Z,101177.81
2018-09-17T13:06:05.118Z,101170.62
2018-09-17T13:08:34.838Z,101170.30
2018-09-17T13:11:04.670Z,101169.65
2018-09-17T13:13:34.481Z,101158.44
2018-09-17T13:16:04.296Z,101165.14
2018-09-17T13:18:33.958Z,101162.84
2018-09-17T13:21:03.722Z,101161.70
2018-09-17T13:23:33.793Z,101154.78
2018-09-17T13:26:03.542Z,101152.80
2018-09-17T13:28:33.270Z,101145.49
2018-09-17T13:31:03.032Z,101146.25
2018-09-17T13:33:32.743Z,101144.63
2018-09-17T13:36:02.483Z,101145.81
2018-09-17T13:38:32.317Z,101137.14
2018-09-17T13:41:02.954Z,101136.08
2018-09-17T13:43:32.693Z,101140.02
2018-09-17T13:46:02.379Z,101139.36
2018-09-17T13:48:32.159Z,101148.66
2018-09-17T13:51:01.939Z,101142.18
2018-09-17T13:53:31.894Z,101147.33
2018-09-17T13:56:01.533Z,101140.94
2018-09-17T13:58:31.329Z,101136.84
2018-09-17T14:01:01.100Z,101141.02
2018-09-17T14:03:30.883Z,101136.62
2018-09-17T14:06:00.625Z,101134.64
2018-09-17T14:08:30.432Z,101129.84
2018-09-17T14:11:00.235Z,101133.09
2018-09-17T14:13:29.947Z,101129.77
2018-09-17T14:16:07.700Z,101127.98
2018-09-17T14:18:38.314Z,101120.48
2018-09-17T14:21:08.521Z,101126.78
2018-09-17T14:23:38.265Z,101126.65
2018-09-17T14:26:08.008Z,101121.52
2018-09-17T14:28:37.795Z,101118.81
2018-09-17T14:31:07.609Z,101118.95
2018-09-17T14:33:42.823Z,101111.94
2018-09-17T14:36:12.237Z,101110.20
2018-09-17T14:38:41.989Z,101107.32
2018-09-17T14:41:11.751Z,101108.73
2018-09-17T14:43:41.566Z,101101.61
2018-09-17T14:46:11.344Z,101097.53
2018-09-17T14:48:41.017Z,101100.23
2018-09-17T14:51:10.762Z,101097.38
2018-09-17T14:53:40.659Z,101096.58
2018-09-17T14:56:10.478Z,101092.20
2018-09-17T14:58:40.300Z,101091.08
2018-09-17T15:01:10.067Z,101087.16
2018-09-17T15:03:39.848Z,101083.00
2018-09-17T15:06:09.631Z,101094.83
2018-09-17T15:08:39.451Z,101089.90
2018-09-17T15:11:09.355Z,101096.05
2018-09-17T15:13:39.255Z,101096.44
2018-09-17T15:16:09.151Z,101093.81
2018-09-17T15:18:38.999Z,101086.06
2018-09-17T15:21:10.648Z,101085.75
2018-09-17T15:23:40.846Z,101082.27
2018-09-17T15:26:10.851Z,101081.30
2018-09-17T15:28:42.332Z,101081.86
2018-09-17T15:31:13.456Z,101075.88
2018-09-17T15:33:43.293Z,101071.02
2018-09-17T15:36:26.447Z,101075.29
2018-09-17T15:38:56.544Z,101078.86
2018-09-17T15:41:26.678Z,101078.17
2018-09-17T15:43:56.786Z,101073.13
2018-09-17T15:46:26.633Z,101069.39
2018-09-17T15:49:01.412Z,101072.86
2018-09-17T15:51:31.290Z,101080.78
2018-09-17T15:54:04.084Z,101081.19
2018-09-17T15:56:34.624Z,101079.48
2018-09-17T15:59:05.123Z,101081.04
2018-09-17T16:01:38.935Z,101077.42
2018-09-17T16:04:09.012Z,101076.33
2018-09-17T16:06:38.822Z,101074.12
2018-09-17T16:09:08.400Z,101076.12
2018-09-17T16:11:38.589Z,101070.13
2018-09-17T16:14:08.292Z,101076.06
2018-09-17T16:16:38.143Z,101076.14
2018-09-17T16:19:08.085Z,101075.50
2018-09-17T16:21:38.292Z,101076.09
2018-09-17T16:24:08.372Z,101073.63
2018-09-17T16:26:38.853Z,101073.66
2018-09-17T16:29:08.898Z,101075.22
2018-09-17T16:31:38.646Z,101068.77
2018-09-17T16:34:10.269Z,101078.48
2018-09-17T16:36:40.030Z,101077.52
2018-09-17T16:39:11.367Z,101068.92
2018-09-17T16:41:41.603Z,101071.98
2018-09-17T16:44:12.944Z,101073.14
2018-09-17T16:46:42.754Z,101071.88
2018-09-17T16:49:12.894Z,101077.73
2018-09-17T16:51:42.999Z,101082.05
2018-09-17T16:54:12.749Z,101075.22
2018-09-17T16:56:42.822Z,101079.70
2018-09-17T16:59:12.714Z,101084.39
2018-09-17T17:01:45.954Z,101082.68
2018-09-17T17:04:18.661Z,101086.45
2018-09-17T17:06:55.386Z,101091.38
2018-09-17T17:09:26.064Z,101081.84
2018-09-17T17:11:56.084Z,101080.70
2018-09-17T17:14:25.950Z,101089.58
2018-09-17T17:16:55.690Z,101094.24
2018-09-17T17:19:25.613Z,101097.84
2018-09-17T17:21:55.695Z,101100.56
2018-09-17T17:24:26.324Z,101101.34
2018-09-17T17:26:56.680Z,101104.61
2018-09-17T17:29:26.968Z,101096.69
2018-09-17T17:31:58.076Z,101107.58
2018-09-17T17:34:28.272Z,101110.91
2018-09-17T17:36:58.310Z,101112.73
2018-09-17T17:39:28.458Z,101111.47
2018-09-17T17:41:58.388Z,101113.66
2018-09-17T17:44:28.736Z,101114.99
2018-09-17T17:46:58.340Z,101115.21
2018-09-17T17:49:28.324Z,101113.88
2018-09-17T17:51:58.310Z,101109.31
2018-09-17T17:54:30.356Z,101115.68
2018-09-17T17:57:00.460Z,101118.34
2018-09-17T17:59:30.079Z,101111.70
2018-09-17T18:02:00.666Z,101118.45
2018-09-17T18:04:30.870Z,101116.56
2018-09-17T18:07:01.346Z,101116.95
2018-09-17T18:09:31.618Z,101119.53
2018-09-17T18:12:01.703Z,101125.58
2018-09-17T18:14:31.316Z,101123.83
2018-09-17T18:17:01.059Z,101122.55
2018-09-17T18:19:31.180Z,101121.64
2018-09-17T18:22:00.940Z,101115.81
2018-09-17T18:24:30.903Z,101114.28
2018-09-17T18:27:01.032Z,101118.49
2018-09-17T18:29:31.201Z,101113.86
2018-09-17T18:32:01.568Z,101116.23
2018-09-17T18:34:31.719Z,101120.44
2018-09-17T18:37:01.883Z,101116.72
2018-09-17T18:39:32.005Z,101118.11
2018-09-17T18:42:02.336Z,101123.97
2018-09-17T18:44:32.186Z,101126.07
2018-09-17T18:47:01.759Z,101132.39
2018-09-17T18:49:33.399Z,101137.09
2018-09-17T18:52:04.345Z,101139.42
2018-09-17T18:54:34.283Z,101133.77
2018-09-17T18:57:04.817Z,101126.11
2018-09-17T18:59:34.859Z,101129.66
2018-09-17T19:02:05.067Z,101127.96
2018-09-17T19:04:34.815Z,101124.98
2018-09-17T19:07:04.606Z,101132.13
2018-09-17T19:09:39.931Z,101128.21
2018-09-17T19:12:10.770Z,101128.42
2018-09-17T19:14:45.475Z,101118.59
2018-09-17T19:17:20.871Z,101120.66
2018-09-17T19:19:51.051Z,101118.28
2018-09-17T19:22:27.920Z,101118.91
2018-09-17T19:24:58.780Z,101115.66
2018-09-17T19:28:34.351Z,101107.09
2018-09-17T19:31:04.891Z,101110.42
2018-09-17T19:33:37.371Z,101109.44
2018-09-17T19:36:07.989Z,101110.83
2018-09-17T19:38:43.126Z,101103.33
2018-09-17T19:41:23.536Z,101106.14
2018-09-17T19:44:03.825Z,101116.64
2018-09-17T19:46:34.055Z,101115.13
2018-09-17T19:49:04.936Z,101113.39
2018-09-17T19:51:40.357Z,101112.05
2018-09-17T19:54:11.724Z,101110.36
2018-09-17T19:56:50.345Z,101110.97
2018-09-17T19:59:35.039Z,101108.45
2018-09-17T20:02:12.850Z,101111.42
2018-09-17T20:04:56.148Z,101106.77
2018-09-17T20:07:28.288Z,101107.39
2018-09-17T20:09:58.720Z,101108.67
2018-09-17T20:12:28.491Z,101102.97
2018-09-17T20:14:58.454Z,101110.81
2018-09-17T20:17:27.976Z,101109.72
2018-09-17T20:19:57.410Z,101112.82
2018-09-17T20:22:26.826Z,101111.54
2018-09-17T20:24:56.334Z,101106.63
2018-09-17T20:27:26.190Z,101100.77
2018-09-17T20:29:56.014Z,101101.18
2018-09-17T20:32:25.979Z,101103.90
2018-09-17T20:34:55.785Z,101098.23
2018-09-17T20:37:25.376Z,101101.41
2018-09-17T20:39:55.054Z,101100.72
2018-09-17T20:42:24.566Z,101095.53
2018-09-17T20:44:54.302Z,101092.42
2018-09-17T20:47:24.246Z,101092.55
2018-09-17T20:49:54.228Z,101090.30
2018-09-17T20:52:23.585Z,101097.84
2018-09-17T20:54:52.970Z,101096.26
2018-09-17T20:57:22.862Z,101089.44
2018-09-17T20:59:52.309Z,101093.12
2018-09-17T21:02:22.196Z,101093.71
2018-09-17T21:04:52.318Z,101093.50
2018-09-17T21:07:22.153Z,101092.16
2018-09-17T21:09:52.028Z,101096.35
2018-09-17T21:12:21.867Z,101093.04
2018-09-17T21:14:51.290Z,101089.95
2018-09-17T21:17:21.105Z,101090.03
2018-09-17T21:19:51.463Z,101088.16
2018-09-17T21:22:21.333Z,101087.87
2018-09-17T21:24:51.356Z,101087.98
2018-09-17T21:27:21.018Z,101085.48
2018-09-17T21:29:50.859Z,101084.25
2018-09-17T21:32:20.782Z,101090.47
2018-09-17T21:34:50.545Z,101086.00
2018-09-17T21:37:20.933Z,101084.05
2018-09-17T21:39:50.645Z,101085.72
2018-09-17T21:42:20.133Z,101083.84
2018-09-17T21:44:49.906Z,101038.55
2018-09-17T21:47:19.346Z,101084.48
2018-09-17T21:49:49.183Z,101083.70
2018-09-17T21:52:19.019Z,101083.42
2018-09-17T21:54:48.709Z,101085.22
2018-09-17T21:57:18.493Z,101081.95
2018-09-17T21:59:48.223Z,101082.27
2018-09-17T22:02:19.150Z,101076.19
2018-09-17T22:04:48.932Z,101078.86
2018-09-17T22:07:18.715Z,101075.59
2018-09-17T22:09:48.600Z,101075.33
2018-09-17T22:12:18.936Z,101071.04
2018-09-17T22:14:48.826Z,101065.34
2018-09-17T22:17:18.631Z,101072.60
2018-09-17T22:19:48.504Z,101070.58
2018-09-17T22:22:18.245Z,101073.34
2018-09-17T22:24:47.746Z,101074.73
2018-09-17T22:27:17.498Z,101079.19
2018-09-17T22:29:47.314Z,101076.94
2018-09-17T22:32:17.083Z,101076.52
2018-09-17T22:34:46.821Z,101075.50
2018-09-17T22:37:16.709Z,101073.25
2018-09-17T22:39:46.455Z,101073.34
2018-09-17T22:42:16.315Z,101072.47
2018-09-17T22:44:45.989Z,101071.04
2018-09-17T22:47:15.804Z,101072.52
2018-09-17T22:49:46.532Z,101080.15
2018-09-17T22:52:16.284Z,101077.48
2018-09-17T22:54:46.129Z,101078.67
2018-09-17T22:57:15.646Z,101073.89
2018-09-17T22:59:45.458Z,101074.98
2018-09-17T23:02:15.337Z,101070.80
2018-09-17T23:04:45.063Z,101086.45
2018-09-17T23:07:14.853Z,101076.96
2018-09-17T23:09:44.597Z,101072.77
2018-09-17T23:12:14.356Z,101070.05
2018-09-17T23:14:44.089Z,101073.85
2018-09-17T23:17:13.695Z,101066.86
2018-09-17T23:19:43.501Z,101069.11
2018-09-17T23:22:12.998Z,101066.61
2018-09-17T23:24:42.857Z,101067.74
2018-09-17T23:27:13.660Z,101069.64
2018-09-17T23:29:44.556Z,101069.80
2018-09-17T23:32:13.948Z,101068.84
2018-09-17T23:34:43.756Z,101063.59
2018-09-17T23:37:13.535Z,101062.34
2018-09-17T23:39:43.242Z,101063.59
2018-09-17T23:42:13.165Z,101060.84
2018-09-17T23:44:42.889Z,101060.30
2018-09-17T23:47:13.328Z,101068.72
2018-09-17T23:49:43.122Z,101063.27
2018-09-17T23:52:13.242Z,101059.22
2018-09-17T23:54:43.043Z,101062.72
2018-09-17T23:57:12.522Z,101065.67
2018-09-17T23:59:42.535Z,101057.80
